createdAt,value
2023-01-29T00:01:42.382Z,0.27
2023-01-29T00:04:10.348Z,0.05
2023-01-29T00:06:38.304Z,0.07
2023-01-29T00:09:06.281Z,-0.08
2023-01-29T00:11:36.159Z,0.04
2023-01-29T00:14:04.059Z,0.03
2023-01-29T00:16:31.987Z,0.13
2023-01-29T00:18:59.932Z,0.06
2023-01-29T00:21:27.799Z,0.20
2023-01-29T00:23:56.359Z,0.09
2023-01-29T00:26:24.389Z,0.06
2023-01-29T00:28:53.912Z,0.12
2023-01-29T00:31:23.652Z,0.01
2023-01-29T00:33:52.216Z,0.14
2023-01-29T00:36:21.824Z,0.09
2023-01-29T00:38:58.823Z,0.05
2023-01-29T00:41:46.364Z,0.12
2023-01-29T00:44:33.348Z,-0.03
2023-01-29T00:47:01.417Z,-0.15
2023-01-29T00:49:30.310Z,-0.01
2023-01-29T00:52:15.851Z,-0.02
2023-01-29T00:54:43.764Z,-0.02
2023-01-29T00:57:11.684Z,-0.11
2023-01-29T00:59:40.988Z,-0.11
2023-01-29T01:02:27.121Z,-0.11
2023-01-29T01:04:55.038Z,-0.08
2023-01-29T01:07:22.964Z,-0.05
2023-01-29T01:10:08.579Z,-0.02
2023-01-29T01:12:36.525Z,-0.03
2023-01-29T01:15:06.589Z,-0.06
2023-01-29T01:17:35.000Z,-0.03
2023-01-29T01:20:02.983Z,-0.14
2023-01-29T01:22:31.245Z,-0.17
2023-01-29T01:24:59.146Z,-0.26
2023-01-29T01:27:27.019Z,-0.26
2023-01-29T01:29:55.010Z,-0.13
2023-01-29T01:32:24.270Z,-0.43
2023-01-29T01:34:53.671Z,-0.35
2023-01-29T01:37:22.187Z,-0.46
2023-01-29T01:39:50.649Z,-0.31
2023-01-29T01:42:18.597Z,-0.27
2023-01-29T01:44:55.934Z,-0.29
2023-01-29T01:47:31.199Z,-0.19
2023-01-29T01:50:04.117Z,-0.38
2023-01-29T01:52:33.840Z,-0.39
2023-01-29T01:55:02.233Z,-0.22
2023-01-29T01:57:32.108Z,-0.39
2023-01-29T02:00:10.875Z,-0.57
2023-01-29T02:03:00.445Z,-0.44
2023-01-29T02:05:46.265Z,-0.31
2023-01-29T02:08:33.493Z,-0.49
2023-01-29T02:11:02.187Z,-0.43
2023-01-29T02:13:30.154Z,-0.45
2023-01-29T02:15:58.013Z,-0.38
2023-01-29T02:18:27.525Z,-0.63
2023-01-29T02:21:14.548Z,-0.88
2023-01-29T02:24:11.226Z,-1.04
2023-01-29T02:26:48.708Z,-1.23
2023-01-29T02:29:25.348Z,-1.15
2023-01-29T02:32:01.427Z,-1.06
2023-01-29T02:34:59.457Z,-0.99
2023-01-29T02:37:36.079Z,-0.83
2023-01-29T02:40:13.642Z,-0.92
2023-01-29T02:42:50.104Z,-1.06
2023-01-29T02:45:23.700Z,-1.14
2023-01-29T02:47:59.737Z,-1.31
2023-01-29T02:50:33.889Z,-1.26
2023-01-29T02:53:07.673Z,-1.61
2023-01-29T02:55:41.304Z,-1.44
2023-01-29T02:58:14.489Z,-1.57
2023-01-29T03:00:46.821Z,-1.49
2023-01-29T03:03:19.959Z,-1.46
2023-01-29T03:05:57.148Z,-1.65
2023-01-29T03:08:43.329Z,-1.31
2023-01-29T03:11:14.229Z,-1.23
2023-01-29T03:13:48.924Z,-1.31
2023-01-29T03:16:24.748Z,-1.55
2023-01-29T03:18:57.684Z,-1.79
2023-01-29T03:21:49.933Z,-1.93
2023-01-29T03:24:49.249Z,-1.88
2023-01-29T03:27:38.361Z,-1.72
2023-01-29T03:30:29.609Z,-1.65
2023-01-29T03:33:02.099Z,-1.89
2023-01-29T03:35:36.624Z,-1.60
2023-01-29T03:38:07.450Z,-1.67
2023-01-29T03:40:41.390Z,-1.71
2023-01-29T03:43:16.943Z,-1.96
2023-01-29T03:45:58.971Z,-1.77
2023-01-29T03:48:36.880Z,-1.67
2023-01-29T03:51:17.274Z,-1.70
2023-01-29T03:53:49.675Z,-1.66
2023-01-29T03:56:30.365Z,-1.63
2023-01-29T03:59:02.992Z,-1.68
2023-01-29T04:01:41.088Z,-1.75
2023-01-29T04:04:16.214Z,-1.71
2023-01-29T04:06:47.647Z,-1.93
2023-01-29T04:09:22.338Z,-1.94
2023-01-29T04:11:56.398Z,-2.07
2023-01-29T04:14:25.180Z,-2.09
2023-01-29T04:16:57.112Z,-2.05
2023-01-29T04:19:26.605Z,-1.81
2023-01-29T04:22:03.565Z,-1.88
2023-01-29T04:24:31.858Z,-1.69
2023-01-29T04:27:13.668Z,-1.82
2023-01-29T04:29:52.598Z,-1.92
2023-01-29T04:32:28.014Z,-1.99
2023-01-29T04:35:02.592Z,-1.97
2023-01-29T04:37:48.229Z,-1.98
2023-01-29T04:40:22.350Z,-2.00
2023-01-29T04:42:56.348Z,-1.98
2023-01-29T04:45:35.075Z,-2.20
2023-01-29T04:48:15.333Z,-1.82
2023-01-29T04:50:54.250Z,-1.91
2023-01-29T04:53:27.870Z,-1.96
2023-01-29T04:56:00.555Z,-2.09
2023-01-29T04:58:34.422Z,-1.91
2023-01-29T05:01:03.325Z,-1.85
2023-01-29T05:03:34.316Z,-1.88
2023-01-29T05:06:04.944Z,-1.90
2023-01-29T05:08:33.964Z,-2.14
2023-01-29T05:11:01.890Z,-2.19
2023-01-29T05:13:32.905Z,-2.11
2023-01-29T05:16:06.248Z,-2.17
2023-01-29T05:18:35.140Z,-2.43
2023-01-29T05:21:07.506Z,-2.47
2023-01-29T05:23:35.879Z,-2.34
2023-01-29T05:26:04.867Z,-2.21
2023-01-29T05:28:31.922Z,-2.27
2023-01-29T05:30:59.986Z,-2.28
2023-01-29T05:33:29.783Z,-2.21
2023-01-29T05:35:59.494Z,-2.08
2023-01-29T05:38:28.845Z,-1.97
2023-01-29T05:40:59.727Z,-1.99
2023-01-29T05:43:27.704Z,-2.02
2023-01-29T05:45:56.672Z,-2.07
2023-01-29T05:48:25.103Z,-2.18
2023-01-29T05:50:53.221Z,-2.19
2023-01-29T05:53:21.218Z,-2.13
2023-01-29T05:55:50.469Z,-2.02
2023-01-29T05:58:19.775Z,-2.12
2023-01-29T06:00:47.800Z,-1.98
2023-01-29T06:03:15.847Z,-1.97
2023-01-29T06:05:43.831Z,-1.90
2023-01-29T06:08:12.148Z,-1.83
2023-01-29T06:10:40.284Z,-1.84
2023-01-29T06:13:09.591Z,-1.84
2023-01-29T06:15:40.136Z,-1.97
2023-01-29T06:18:08.433Z,-2.01
2023-01-29T06:20:36.374Z,-2.05
2023-01-29T06:23:04.398Z,-2.09
2023-01-29T06:25:32.427Z,-2.13
2023-01-29T06:28:00.323Z,-2.12
2023-01-29T06:30:29.615Z,-2.25
2023-01-29T06:32:58.864Z,-2.18
2023-01-29T06:35:26.979Z,-2.07
2023-01-29T06:37:54.937Z,-2.13
2023-01-29T06:40:22.868Z,-2.25
2023-01-29T06:42:50.759Z,-2.20
2023-01-29T06:45:18.719Z,-2.30
2023-01-29T06:47:48.009Z,-2.30
2023-01-29T06:50:16.098Z,-2.46
2023-01-29T06:52:44.209Z,-2.61
2023-01-29T06:55:12.223Z,-2.65
2023-01-29T06:57:40.203Z,-2.73
2023-01-29T07:00:09.995Z,-2.69
2023-01-29T07:02:37.884Z,-2.75
2023-01-29T07:05:07.762Z,-2.80
2023-01-29T07:07:36.824Z,-2.87
2023-01-29T07:10:05.170Z,-2.99
2023-01-29T07:12:33.081Z,-2.75
2023-01-29T07:15:00.985Z,-2.52
2023-01-29T07:17:28.848Z,-2.59
2023-01-29T07:19:56.802Z,-2.47
2023-01-29T07:22:26.146Z,-2.48
2023-01-29T07:24:54.092Z,-2.24
2023-01-29T07:27:22.059Z,-2.24
2023-01-29T07:29:50.044Z,-2.24
2023-01-29T07:32:18.009Z,-2.18
2023-01-29T07:34:45.916Z,-2.13
2023-01-29T07:37:13.792Z,-1.99
2023-01-29T07:39:43.494Z,-2.03
2023-01-29T07:42:11.396Z,-1.96
2023-01-29T07:44:39.335Z,-1.80
2023-01-29T07:47:07.232Z,-1.72
2023-01-29T07:49:35.122Z,-1.74
2023-01-29T07:52:03.080Z,-1.74
2023-01-29T07:54:32.028Z,-1.70
2023-01-29T07:57:01.538Z,-1.76
2023-01-29T07:59:29.457Z,-1.67
2023-01-29T08:01:57.384Z,-1.55
2023-01-29T08:04:25.403Z,-1.44
2023-01-29T08:06:53.316Z,-1.38
2023-01-29T08:09:21.221Z,-1.27
2023-01-29T08:11:49.121Z,-1.28
2023-01-29T08:14:18.539Z,-1.23
2023-01-29T08:16:46.454Z,-1.27
2023-01-29T08:19:14.443Z,-1.32
2023-01-29T08:21:42.491Z,-1.15
2023-01-29T08:24:10.618Z,-1.19
2023-01-29T08:26:38.493Z,-1.18
2023-01-29T08:29:06.408Z,-1.13
2023-01-29T08:31:36.220Z,-1.15
2023-01-29T08:34:04.207Z,-1.10
2023-01-29T08:36:32.104Z,-0.99
2023-01-29T08:39:00.046Z,-1.09
2023-01-29T08:41:27.923Z,-0.97
2023-01-29T08:43:57.474Z,-0.89
2023-01-29T08:46:25.396Z,-0.92
2023-01-29T08:48:55.390Z,-1.03
2023-01-29T08:51:23.575Z,-1.01
2023-01-29T08:53:51.717Z,-0.95
2023-01-29T08:56:19.632Z,-0.87
2023-01-29T08:58:47.989Z,-0.83
2023-01-29T09:01:16.171Z,-0.95
2023-01-29T09:03:44.757Z,-0.87
2023-01-29T09:06:16.051Z,-0.87
2023-01-29T09:08:44.124Z,-0.85
2023-01-29T09:11:12.015Z,-0.85
2023-01-29T09:13:39.943Z,-0.69
2023-01-29T09:16:08.726Z,-0.75
2023-01-29T09:18:36.812Z,-0.87
2023-01-29T09:21:05.086Z,-0.54
2023-01-29T09:23:34.466Z,-0.64
2023-01-29T09:26:02.500Z,-0.59
2023-01-29T09:28:30.463Z,-0.61
2023-01-29T09:31:01.723Z,-0.55
2023-01-29T09:33:31.014Z,-0.30
2023-01-29T09:35:58.966Z,-0.29
2023-01-29T09:38:26.889Z,-0.20
2023-01-29T09:41:07.396Z,-0.10
2023-01-29T09:43:44.700Z,-0.31
2023-01-29T09:46:21.109Z,-0.25
2023-01-29T09:48:54.119Z,-0.31
2023-01-29T09:51:29.620Z,-0.37
2023-01-29T09:54:06.521Z,-0.10
2023-01-29T09:56:36.508Z,-0.17
2023-01-29T09:59:04.509Z,-0.07
2023-01-29T10:01:50.730Z,0.04
2023-01-29T10:05:03.552Z,-0.02
2023-01-29T10:07:56.520Z,-0.05
2023-01-29T10:10:38.423Z,0.07
2023-01-29T10:13:21.255Z,0.24
2023-01-29T10:16:03.426Z,0.15
2023-01-29T10:19:06.588Z,0.23
2023-01-29T10:21:54.125Z,-0.10
2023-01-29T10:24:33.235Z,-0.08
2023-01-29T10:27:02.605Z,-0.08
2023-01-29T10:29:33.219Z,0.02
2023-01-29T10:32:06.072Z,0.02
2023-01-29T10:34:40.272Z,0.06
2023-01-29T10:37:18.549Z,0.04
2023-01-29T10:39:47.031Z,0.14
2023-01-29T10:42:23.553Z,0.20
2023-01-29T10:45:07.657Z,0.35
2023-01-29T10:48:15.871Z,0.32
2023-01-29T10:50:50.104Z,0.52
2023-01-29T10:53:32.994Z,0.56
2023-01-29T10:56:22.421Z,0.31
2023-01-29T10:58:54.934Z,0.37
2023-01-29T11:01:26.834Z,0.84
2023-01-29T11:04:01.401Z,1.05
2023-01-29T11:06:32.619Z,1.28
2023-01-29T11:09:09.281Z,1.34
2023-01-29T11:11:43.100Z,1.14
2023-01-29T11:14:14.462Z,1.34
2023-01-29T11:16:45.779Z,1.46
2023-01-29T11:19:14.149Z,1.27
2023-01-29T11:21:57.236Z,1.36
2023-01-29T11:24:25.768Z,1.45
2023-01-29T11:26:57.339Z,1.36
2023-01-29T11:30:00.578Z,1.12
2023-01-29T11:32:35.009Z,1.17
2023-01-29T11:35:05.344Z,1.48
2023-01-29T11:37:36.252Z,1.62
2023-01-29T11:40:36.308Z,1.83
2023-01-29T11:43:24.839Z,1.40
2023-01-29T11:45:56.118Z,1.61
2023-01-29T11:48:28.443Z,1.76
2023-01-29T11:51:00.717Z,2.04
2023-01-29T11:53:36.712Z,1.93
2023-01-29T11:56:16.944Z,2.09
2023-01-29T11:58:46.188Z,2.34
2023-01-29T12:01:16.557Z,2.03
2023-01-29T12:03:49.303Z,1.74
2023-01-29T12:06:20.884Z,2.15
2023-01-29T12:08:56.223Z,2.00
2023-01-29T12:11:30.360Z,2.23
2023-01-29T12:14:00.092Z,1.98
2023-01-29T12:16:33.269Z,2.05
2023-01-29T12:19:11.640Z,2.02
2023-01-29T12:21:48.109Z,2.16
2023-01-29T12:24:32.454Z,2.21
2023-01-29T12:27:13.147Z,2.23
2023-01-29T12:29:46.993Z,2.43
2023-01-29T12:32:20.696Z,2.55
2023-01-29T12:34:53.325Z,2.43
2023-01-29T12:37:29.025Z,2.07
2023-01-29T12:39:57.332Z,2.04
2023-01-29T12:42:27.581Z,2.39
2023-01-29T12:45:00.722Z,2.21
2023-01-29T12:47:33.552Z,2.14
2023-01-29T12:50:08.204Z,2.22
2023-01-29T12:52:40.778Z,2.09
2023-01-29T12:55:13.842Z,2.30
2023-01-29T12:57:47.740Z,2.31
2023-01-29T13:00:18.145Z,2.54
2023-01-29T13:02:51.918Z,2.65
2023-01-29T13:05:24.534Z,2.73
2023-01-29T13:07:58.819Z,2.62
2023-01-29T13:10:30.800Z,2.62
2023-01-29T13:13:04.048Z,2.67
2023-01-29T13:15:36.397Z,2.61
2023-01-29T13:18:24.954Z,2.48
2023-01-29T13:20:53.979Z,2.41
2023-01-29T13:23:23.847Z,2.16
2023-01-29T13:25:53.227Z,2.09
2023-01-29T13:28:24.853Z,2.05
2023-01-29T13:31:18.947Z,2.36
2023-01-29T13:33:55.213Z,2.71
2023-01-29T13:36:29.099Z,2.73
2023-01-29T13:39:01.019Z,2.67
2023-01-29T13:41:41.848Z,2.77
2023-01-29T13:44:22.349Z,2.99
2023-01-29T13:46:54.836Z,2.96
2023-01-29T13:49:29.769Z,2.68
2023-01-29T13:51:58.492Z,2.76
2023-01-29T13:54:28.230Z,2.81
2023-01-29T13:57:01.926Z,3.23
2023-01-29T13:59:55.323Z,2.87
2023-01-29T14:02:26.159Z,2.88
2023-01-29T14:05:33.838Z,3.22
2023-01-29T14:08:03.291Z,3.37
2023-01-29T14:10:32.704Z,3.17
2023-01-29T14:13:36.192Z,3.08
2023-01-29T14:16:34.986Z,2.80
2023-01-29T14:19:06.425Z,2.60
2023-01-29T14:21:37.754Z,2.40
2023-01-29T14:24:19.836Z,2.48
2023-01-29T14:26:50.559Z,2.40
2023-01-29T14:32:20.436Z,2.71
2023-01-29T14:32:42.540Z,2.56
2023-01-29T14:34:51.866Z,2.58
2023-01-29T14:37:24.122Z,2.47
2023-01-29T14:39:54.262Z,2.37
2023-01-29T14:42:26.293Z,2.56
2023-01-29T14:45:09.200Z,2.70
2023-01-29T14:47:59.997Z,2.66
2023-01-29T14:51:01.616Z,2.44
2023-01-29T14:53:47.343Z,2.45
2023-01-29T14:56:18.864Z,2.24
2023-01-29T14:58:54.327Z,2.24
2023-01-29T15:01:27.559Z,2.16
2023-01-29T15:04:06.851Z,2.17
2023-01-29T15:06:42.590Z,2.25
2023-01-29T15:09:17.859Z,2.23
2023-01-29T15:11:52.908Z,2.16
2023-01-29T15:14:33.544Z,2.14
2023-01-29T15:17:19.458Z,2.10
2023-01-29T15:19:53.000Z,2.15
2023-01-29T15:22:26.287Z,2.12
2023-01-29T15:25:07.545Z,2.06
2023-01-29T15:27:37.217Z,2.06
2023-01-29T15:30:08.932Z,2.02
2023-01-29T15:32:39.662Z,2.03
2023-01-29T15:35:12.617Z,1.86
2023-01-29T15:37:42.262Z,1.86
2023-01-29T15:40:18.427Z,1.93
2023-01-29T15:42:48.788Z,2.01
2023-01-29T15:45:30.664Z,1.99
2023-01-29T15:48:06.867Z,1.93
2023-01-29T15:50:40.793Z,1.90
2023-01-29T15:53:14.545Z,1.88
2023-01-29T15:55:42.843Z,1.77
2023-01-29T15:58:16.835Z,1.81
2023-01-29T16:00:51.511Z,1.79
2023-01-29T16:03:23.836Z,1.55
2023-01-29T16:05:53.769Z,1.66
2023-01-29T16:08:23.390Z,1.58
2023-01-29T16:10:55.199Z,1.55
2023-01-29T16:13:25.771Z,1.50
2023-01-29T16:15:59.562Z,1.36
2023-01-29T16:18:31.517Z,1.39
2023-01-29T16:21:05.449Z,1.26
2023-01-29T16:23:37.940Z,1.29
2023-01-29T16:26:09.500Z,1.16
2023-01-29T16:28:42.079Z,1.29
2023-01-29T16:31:11.989Z,1.07
2023-01-29T16:33:43.358Z,1.02
2023-01-29T16:36:17.886Z,1.02
2023-01-29T16:38:50.154Z,1.13
2023-01-29T16:41:31.366Z,1.08
2023-01-29T16:44:03.404Z,1.05
2023-01-29T16:46:37.427Z,0.93
2023-01-29T16:49:45.184Z,0.84
2023-01-29T16:52:24.573Z,0.69
2023-01-29T16:54:52.942Z,0.75
2023-01-29T16:57:25.930Z,0.68
2023-01-29T16:59:57.962Z,0.52
2023-01-29T17:02:33.223Z,0.40
2023-01-29T17:05:05.290Z,0.27
2023-01-29T17:07:39.045Z,0.24
2023-01-29T17:10:09.956Z,0.30
2023-01-29T17:12:40.609Z,0.13
2023-01-29T17:15:35.689Z,0.13
2023-01-29T17:18:04.618Z,0.01
2023-01-29T17:20:35.695Z,-0.07
2023-01-29T17:23:05.037Z,-0.02
2023-01-29T17:25:33.706Z,0.09
2023-01-29T17:28:02.650Z,0.11
2023-01-29T17:30:34.708Z,0.16
2023-01-29T17:33:04.543Z,0.13
2023-01-29T17:35:32.497Z,0.00
2023-01-29T17:38:01.312Z,-0.13
2023-01-29T17:40:38.644Z,-0.25
2023-01-29T17:43:08.989Z,-0.37
2023-01-29T17:45:36.961Z,-0.38
2023-01-29T17:48:08.049Z,-0.28
2023-01-29T17:50:39.341Z,-0.10
2023-01-29T17:53:08.102Z,-0.22
2023-01-29T17:55:37.449Z,-0.46
2023-01-29T17:58:05.386Z,-0.52
2023-01-29T18:00:35.724Z,-0.49
2023-01-29T18:03:03.752Z,-0.69
2023-01-29T18:05:31.723Z,-0.82
2023-01-29T18:07:59.719Z,-0.90
2023-01-29T18:10:27.699Z,-0.69
2023-01-29T18:12:57.011Z,-0.82
2023-01-29T18:15:24.945Z,-0.89
2023-01-29T18:17:53.451Z,-1.06
2023-01-29T18:20:25.675Z,-0.96
2023-01-29T18:22:54.105Z,-0.91
2023-01-29T18:25:24.163Z,-1.01
2023-01-29T18:27:52.763Z,-1.02
2023-01-29T18:30:22.262Z,-1.00
2023-01-29T18:32:50.431Z,-1.06
2023-01-29T18:35:18.903Z,-1.10
2023-01-29T18:37:47.288Z,-1.21
2023-01-29T18:40:17.351Z,-1.22
2023-01-29T18:42:45.720Z,-1.25
2023-01-29T18:45:14.185Z,-1.33
2023-01-29T18:47:43.672Z,-1.25
2023-01-29T18:50:12.648Z,-1.31
2023-01-29T18:52:40.958Z,-1.31
2023-01-29T18:55:10.012Z,-1.30
2023-01-29T18:58:28.591Z,-1.40
2023-01-29T19:00:27.155Z,-1.43
2023-01-29T19:02:56.455Z,-1.51
2023-01-29T19:05:25.692Z,-1.63
2023-01-29T19:07:53.682Z,-1.44
2023-01-29T19:10:21.625Z,-1.42
2023-01-29T19:12:49.516Z,-1.55
2023-01-29T19:15:20.695Z,-1.52
2023-01-29T19:17:48.796Z,-1.43
2023-01-29T19:20:18.762Z,-1.34
2023-01-29T19:22:46.705Z,-1.40
2023-01-29T19:25:16.151Z,-1.41
2023-01-29T19:27:44.549Z,-1.45
2023-01-29T19:30:13.951Z,-1.51
2023-01-29T19:32:42.513Z,-1.56
2023-01-29T19:35:10.538Z,-1.57
2023-01-29T19:37:39.868Z,-1.47
2023-01-29T19:40:09.348Z,-1.44
2023-01-29T19:42:37.634Z,-1.42
2023-01-29T19:45:07.174Z,-1.42
2023-01-29T19:47:39.633Z,-1.40
2023-01-29T19:50:08.706Z,-1.57
2023-01-29T19:52:50.289Z,-1.65
2023-01-29T19:55:21.449Z,-1.66
2023-01-29T19:57:49.629Z,-1.70
2023-01-29T20:00:19.692Z,-1.70
2023-01-29T20:02:47.603Z,-1.79
2023-01-29T20:05:18.434Z,-1.80
2023-01-29T20:07:46.652Z,-1.82
2023-01-29T20:10:17.496Z,-1.80
2023-01-29T20:12:47.576Z,-1.79
2023-01-29T20:15:16.073Z,-1.83
2023-01-29T20:17:45.735Z,-1.77
2023-01-29T20:20:14.858Z,-1.60
2023-01-29T20:22:43.014Z,-1.53
2023-01-29T20:25:13.680Z,-1.50
2023-01-29T20:27:42.273Z,-1.51
2023-01-29T20:30:15.740Z,-1.49
2023-01-29T20:32:43.811Z,-1.49
2023-01-29T20:35:12.001Z,-1.62
2023-01-29T20:37:39.891Z,-1.49
2023-01-29T20:40:08.813Z,-1.43
2023-01-29T20:42:36.775Z,-1.43
2023-01-29T20:45:05.831Z,-1.38
2023-01-29T20:47:35.224Z,-1.35
2023-01-29T20:50:08.552Z,-1.35
2023-01-29T20:52:36.582Z,-1.34
2023-01-29T20:55:06.065Z,-1.27
2023-01-29T20:57:34.250Z,-1.36
2023-01-29T21:00:02.212Z,-1.26
2023-01-29T21:02:30.183Z,-1.29
2023-01-29T21:04:59.588Z,-1.29
2023-01-29T21:07:27.530Z,-1.34
2023-01-29T21:09:55.527Z,-1.31
2023-01-29T21:12:23.416Z,-1.35
2023-01-29T21:14:51.417Z,-1.37
2023-01-29T21:17:19.947Z,-1.40
2023-01-29T21:19:47.901Z,-1.42
2023-01-29T21:22:17.347Z,-1.46
2023-01-29T21:24:45.333Z,-1.48
2023-01-29T21:27:13.238Z,-1.46
2023-01-29T21:29:41.213Z,-1.58
2023-01-29T21:32:11.690Z,-1.49
2023-01-29T21:34:40.039Z,-1.60
2023-01-29T21:37:09.394Z,-1.55
2023-01-29T21:39:38.715Z,-1.64
2023-01-29T21:42:35.584Z,-1.65
2023-01-29T21:45:03.589Z,-1.41
2023-01-29T21:47:31.510Z,-1.32
2023-01-29T21:50:00.248Z,-1.19
2023-01-29T21:52:28.185Z,-1.06
2023-01-29T21:54:57.498Z,-1.00
2023-01-29T21:57:26.718Z,-0.98
2023-01-29T21:59:54.924Z,-0.93
2023-01-29T22:02:23.509Z,-0.81
2023-01-29T22:04:52.426Z,-0.89
2023-01-29T22:07:20.380Z,-0.95
2023-01-29T22:09:48.438Z,-0.97
2023-01-29T22:12:17.950Z,-0.97
2023-01-29T22:14:47.404Z,-0.83
2023-01-29T22:17:16.741Z,-0.77
2023-01-29T22:19:44.919Z,-0.71
2023-01-29T22:22:14.702Z,-0.76
2023-01-29T22:24:44.794Z,-0.67
2023-01-29T22:27:12.909Z,-0.66
2023-01-29T22:29:42.518Z,-0.82
2023-01-29T22:32:11.703Z,-0.64
2023-01-29T22:34:39.850Z,-0.61
2023-01-29T22:37:07.766Z,-0.54
2023-01-29T22:39:35.789Z,-0.51
2023-01-29T22:42:03.713Z,-0.51
2023-01-29T22:44:31.596Z,-0.57
2023-01-29T22:47:01.423Z,-0.53
2023-01-29T22:49:30.444Z,-0.67
2023-01-29T22:52:10.995Z,-0.37
2023-01-29T22:54:40.054Z,-0.40
2023-01-29T22:57:10.155Z,-0.33
2023-01-29T22:59:38.527Z,-0.40
2023-01-29T23:02:08.719Z,-0.45
2023-01-29T23:04:36.769Z,-0.47
2023-01-29T23:07:05.275Z,-0.28
2023-01-29T23:09:33.240Z,-0.25
2023-01-29T23:12:01.424Z,-0.28
2023-01-29T23:14:29.417Z,-0.26
2023-01-29T23:16:57.402Z,-0.24
2023-01-29T23:19:27.218Z,-0.37
2023-01-29T23:21:55.126Z,-0.21
2023-01-29T23:24:23.344Z,-0.22
2023-01-29T23:27:08.525Z,-0.29
2023-01-29T23:29:36.460Z,-0.35
2023-01-29T23:32:04.674Z,-0.39
2023-01-29T23:34:34.002Z,-0.35
2023-01-29T23:37:01.962Z,-0.35
2023-01-29T23:39:29.863Z,-0.35
2023-01-29T23:41:57.819Z,-0.31
2023-01-29T23:44:25.739Z,-0.36
2023-01-29T23:46:53.753Z,-0.28
2023-01-29T23:49:21.961Z,-0.35
2023-01-29T23:51:52.018Z,-0.37
2023-01-29T23:54:20.113Z,-0.48
2023-01-29T23:56:48.019Z,-0.43
2023-01-29T23:59:17.112Z,-0.50
